This is the latest recevied weather packets stored in our database for station/object KC0SIQ-13. If no packets are shown the sender has not sent any weather packets the latest 10 day(s).
| Time | Temp. | Humidity | Pressure | Rain* | Wind** | Luminosity | Snow |
|---|---|---|---|---|---|---|---|
| 1777914528 | 22.22° C | 23% | 1005.9 hPa | 0 mm | - | 459 W/m² | - |
| 1777914224 | 22.22° C | 24% | 1005.9 hPa | 0 mm | - | 320 W/m² | - |
| 1777913921 | 21.67° C | 24% | 1005.6 hPa | 0 mm | - | 269 W/m² | - |
| 1777913617 | 22.22° C | 23% | 1005.6 hPa | 0 mm | - | 258 W/m² | - |
| 1777913313 | 22.22° C | 24% | 1005.7 hPa | 0 mm | - | 259 W/m² | - |
| 1777913011 | 21.67° C | 24% | 1005.9 hPa | 0 mm | - | 262 W/m² | - |
| 1777912706 | 22.22° C | 23% | 1006 hPa | 0 mm | - | 242 W/m² | - |
| 1777912403 | 21.67° C | 23% | 1005.9 hPa | 0 mm | - | 233 W/m² | - |
| 1777912099 | 21.67° C | 24% | 1005.7 hPa | 0 mm | - | 231 W/m² | - |
| 1777911795 | 21.67° C | 24% | 1005.7 hPa | 0 mm | - | 242 W/m² | - |
| 1777911492 | 21.67° C | 24% | 1005.9 hPa | 0 mm | - | 227 W/m² | - |
| 1777911189 | 21.11° C | 25% | 1006 hPa | 0 mm | - | 221 W/m² | - |
| 1777910886 | 21.11° C | 24% | 1006.1 hPa | 0 mm | - | 239 W/m² | - |
| 1777910583 | 21.11° C | 25% | 1006.1 hPa | 0 mm | - | 212 W/m² | - |
| 1777910280 | 21.11° C | 25% | 1006.1 hPa | 0 mm | - | 204 W/m² | - |
| 1777909977 | 21.67° C | 25% | 1006.1 hPa | 0 mm | - | 195 W/m² | - |
| 1777909673 | 21.11° C | 26% | 1006.1 hPa | 0 mm | - | 212 W/m² | - |
| 1777909371 | 20° C | 27% | 1006.1 hPa | 0 mm | - | 198 W/m² | - |
| 1777909069 | 19.44° C | 32% | 1006.3 hPa | 0 mm | - | 172 W/m² | - |
| 1777908766 | 19.44° C | 32% | 1006.2 hPa | 0 mm | - | 181 W/m² | - |
| 1777908463 | 18.89° C | 34% | 1006.1 hPa | 0 mm | - | 180 W/m² | - |
| 1777908160 | 18.33° C | 37% | 1006.4 hPa | 0 mm | - | 174 W/m² | - |
| 1777907856 | 17.22° C | 39% | 1006.2 hPa | 0 mm | - | 165 W/m² | - |
| 1777907552 | 16.67° C | 44% | 1006.4 hPa | 0 mm | - | 161 W/m² | - |
| 1777907248 | 16.11° C | 45% | 1006.6 hPa | 0 mm | - | 157 W/m² | - |
* Rain latest hour (hover to see other rain measurements)
** Current wind speed in m/s (hover to see current wind gust speed)